createdAt,value
2023-05-25T00:01:43.922Z,14.50
2023-05-25T00:04:11.062Z,13.73
2023-05-25T00:06:41.129Z,14.22
2023-05-25T00:09:10.151Z,13.83
2023-05-25T00:11:36.764Z,13.96
2023-05-25T00:14:03.438Z,12.42
2023-05-25T00:16:31.816Z,14.36
2023-05-25T00:18:58.473Z,13.76
2023-05-25T00:21:25.789Z,13.69
2023-05-25T00:23:52.643Z,13.14
2023-05-25T00:26:19.375Z,13.82
2023-05-25T00:28:46.073Z,13.98
2023-05-25T00:31:12.739Z,12.45
2023-05-25T00:33:46.277Z,13.84
2023-05-25T00:36:12.989Z,13.79
2023-05-25T00:38:40.451Z,12.86
2023-05-25T00:41:07.128Z,13.12
2023-05-25T00:43:33.753Z,13.08
2023-05-25T00:46:01.044Z,13.31
2023-05-25T00:48:27.792Z,12.60
2023-05-25T00:51:00.011Z,13.40
2023-05-25T00:53:26.887Z,13.65
2023-05-25T00:55:56.072Z,13.38
2023-05-25T00:58:24.773Z,13.37
2023-05-25T01:00:53.507Z,13.71
2023-05-25T01:03:22.008Z,13.30
2023-05-25T01:05:50.132Z,13.25
2023-05-25T01:08:17.560Z,13.79
2023-05-25T01:10:49.246Z,13.70
2023-05-25T01:13:17.832Z,12.87
2023-05-25T01:15:45.729Z,13.61
2023-05-25T01:18:15.529Z,13.41
2023-05-25T01:21:18.046Z,12.76
2023-05-25T01:23:53.926Z,11.03
2023-05-25T01:26:21.838Z,13.55
2023-05-25T01:28:52.056Z,13.64
2023-05-25T01:31:22.381Z,13.41
2023-05-25T01:33:51.570Z,13.01
2023-05-25T01:36:19.604Z,13.74
2023-05-25T01:38:46.756Z,13.68
2023-05-25T01:41:13.518Z,13.39
2023-05-25T01:43:40.746Z,11.96
2023-05-25T01:46:35.749Z,13.57
2023-05-25T01:49:11.533Z,13.47
2023-05-25T01:51:44.571Z,13.59
2023-05-25T01:54:19.791Z,12.92
2023-05-25T01:56:48.215Z,13.62
2023-05-25T01:59:16.676Z,13.06
2023-05-25T02:01:43.959Z,12.61
2023-05-25T02:04:10.874Z,13.72
2023-05-25T02:06:42.312Z,13.59
2023-05-25T02:09:10.364Z,12.82
2023-05-25T02:11:37.088Z,13.69
2023-05-25T02:14:03.724Z,11.68
2023-05-25T02:16:30.537Z,12.03
2023-05-25T02:18:58.232Z,13.30
2023-05-25T02:21:26.840Z,13.29
2023-05-25T02:23:54.138Z,13.57
2023-05-25T02:26:27.373Z,13.55
2023-05-25T02:28:55.000Z,13.10
2023-05-25T02:31:21.563Z,13.36
2023-05-25T02:33:48.298Z,12.23
2023-05-25T02:36:14.910Z,12.86
2023-05-25T02:38:41.537Z,12.78
2023-05-25T02:41:08.128Z,13.23
2023-05-25T02:43:37.799Z,13.29
2023-05-25T02:46:04.639Z,12.16
2023-05-25T02:48:31.285Z,12.55
2023-05-25T02:50:57.989Z,11.74
2023-05-25T02:53:25.793Z,13.00
2023-05-25T02:55:52.856Z,12.22
2023-05-25T02:58:19.474Z,12.70
2023-05-25T03:00:46.811Z,12.75
2023-05-25T03:03:13.864Z,12.60
2023-05-25T03:05:41.836Z,12.32
2023-05-25T03:08:08.462Z,11.31
2023-05-25T03:10:35.098Z,11.94
2023-05-25T03:13:01.671Z,12.38
2023-05-25T03:15:34.440Z,12.03
2023-05-25T03:18:01.658Z,12.32
2023-05-25T03:20:32.982Z,12.71
2023-05-25T03:22:59.988Z,12.59
2023-05-25T03:25:27.026Z,12.52
2023-05-25T03:27:57.553Z,12.81
2023-05-25T03:30:24.212Z,10.00
2023-05-25T03:32:51.037Z,12.62
2023-05-25T03:35:23.414Z,12.60
2023-05-25T03:37:50.039Z,12.25
2023-05-25T03:40:16.794Z,12.57
2023-05-25T03:42:43.412Z,11.99
2023-05-25T03:45:10.582Z,11.69
2023-05-25T03:47:37.223Z,12.40
2023-05-25T03:50:05.919Z,11.87
2023-05-25T03:52:34.731Z,12.88
2023-05-25T03:55:05.402Z,12.88
2023-05-25T03:57:32.163Z,12.48
2023-05-25T03:59:58.813Z,12.71
2023-05-25T04:02:25.613Z,12.44
2023-05-25T04:04:53.661Z,12.70
2023-05-25T04:07:20.657Z,13.06
2023-05-25T04:09:47.350Z,13.35
2023-05-25T04:12:15.394Z,13.43
2023-05-25T04:14:46.145Z,13.70
2023-05-25T04:17:12.901Z,13.50
2023-05-25T04:19:39.466Z,13.65
2023-05-25T04:22:06.060Z,13.53
2023-05-25T04:24:32.759Z,14.12
2023-05-25T04:26:59.670Z,14.18
2023-05-25T04:29:26.957Z,14.31
2023-05-25T04:31:55.127Z,14.32
2023-05-25T04:34:21.808Z,13.97
2023-05-25T04:36:55.114Z,14.00
2023-05-25T04:39:21.793Z,14.20
2023-05-25T04:41:48.493Z,13.91
2023-05-25T04:44:15.145Z,12.98
2023-05-25T04:46:41.811Z,13.77
2023-05-25T04:49:13.300Z,13.97
2023-05-25T04:51:41.463Z,13.66
2023-05-25T04:54:08.236Z,14.24
2023-05-25T04:56:35.087Z,12.48
2023-05-25T04:59:04.757Z,13.54
2023-05-25T05:01:31.487Z,13.19
2023-05-25T05:03:58.214Z,13.61
2023-05-25T05:06:25.861Z,13.89
2023-05-25T05:08:52.591Z,13.25
2023-05-25T05:11:19.267Z,14.08
2023-05-25T05:13:46.002Z,13.83
2023-05-25T05:16:12.773Z,14.81
2023-05-25T05:18:48.372Z,12.55
2023-05-25T05:21:15.115Z,15.28
2023-05-25T05:23:45.103Z,15.15
2023-05-25T05:26:15.127Z,14.64
2023-05-25T05:28:41.905Z,15.77
2023-05-25T05:31:09.649Z,16.06
2023-05-25T05:33:36.417Z,15.25
2023-05-25T05:36:03.912Z,16.32
2023-05-25T05:38:31.351Z,15.95
2023-05-25T05:40:58.002Z,16.78
2023-05-25T05:43:24.785Z,16.58
2023-05-25T05:45:51.360Z,16.89
2023-05-25T05:48:19.050Z,16.31
2023-05-25T05:50:46.012Z,16.04
2023-05-25T05:53:12.850Z,16.96
2023-05-25T05:55:39.455Z,17.18
2023-05-25T05:58:12.701Z,16.30
2023-05-25T06:00:39.423Z,16.75
2023-05-25T06:03:06.017Z,15.77
2023-05-25T06:05:32.823Z,17.69
2023-05-25T06:07:59.565Z,17.45
2023-05-25T06:10:26.318Z,17.12
2023-05-25T06:12:52.966Z,17.89
2023-05-25T06:15:30.799Z,17.31
2023-05-25T06:18:09.708Z,17.15
2023-05-25T06:20:36.559Z,17.17
2023-05-25T06:23:03.239Z,17.51
2023-05-25T06:25:29.914Z,17.58
2023-05-25T06:27:57.053Z,17.56
2023-05-25T06:30:23.719Z,17.12
2023-05-25T06:32:50.489Z,17.40
2023-05-25T06:35:20.211Z,16.69
2023-05-25T06:37:50.282Z,16.75
2023-05-25T06:40:22.569Z,17.36
2023-05-25T06:42:49.275Z,17.24
2023-05-25T06:45:16.677Z,17.34
2023-05-25T06:47:43.423Z,17.27
2023-05-25T06:50:10.515Z,17.25
2023-05-25T06:52:38.312Z,16.71
2023-05-25T06:55:05.553Z,17.85
2023-05-25T06:57:32.199Z,18.09
2023-05-25T07:00:08.724Z,18.78
2023-05-25T07:02:35.622Z,18.10
2023-05-25T07:05:04.711Z,19.12
2023-05-25T07:07:38.326Z,19.67
2023-05-25T07:10:05.735Z,19.18
2023-05-25T07:12:32.385Z,19.54
2023-05-25T07:14:59.112Z,19.79
2023-05-25T07:17:26.619Z,19.37
2023-05-25T07:19:53.499Z,19.15
2023-05-25T07:22:20.577Z,19.49
2023-05-25T07:24:47.225Z,18.86
2023-05-25T07:27:14.331Z,19.70
2023-05-25T07:29:44.259Z,19.85
2023-05-25T07:32:11.149Z,18.09
2023-05-25T07:34:37.875Z,19.71
2023-05-25T07:37:04.663Z,18.21
2023-05-25T07:39:31.275Z,17.62
2023-05-25T07:41:59.956Z,19.59
2023-05-25T07:44:26.684Z,19.43
2023-05-25T07:46:53.456Z,19.38
2023-05-25T07:49:20.168Z,19.69
2023-05-25T07:51:47.126Z,19.31
2023-05-25T07:54:13.821Z,19.73
2023-05-25T07:56:40.621Z,19.47
2023-05-25T07:59:07.433Z,19.51
2023-05-25T08:01:34.275Z,19.79
2023-05-25T08:04:01.133Z,19.46
2023-05-25T08:06:27.905Z,19.15
2023-05-25T08:08:54.874Z,19.57
2023-05-25T08:11:26.761Z,19.23
2023-05-25T08:13:53.625Z,19.98
2023-05-25T08:16:20.476Z,20.09
2023-05-25T08:18:53.248Z,19.49
2023-05-25T08:21:20.186Z,20.97
2023-05-25T08:23:47.021Z,20.51
2023-05-25T08:26:34.221Z,19.27
2023-05-25T08:29:02.435Z,21.08
2023-05-25T08:31:29.436Z,20.62
2023-05-25T08:33:56.163Z,20.59
2023-05-25T08:36:22.885Z,20.03
2023-05-25T08:38:49.521Z,20.72
2023-05-25T08:41:16.744Z,21.09
2023-05-25T08:43:43.740Z,21.01
2023-05-25T08:46:10.400Z,20.32
2023-05-25T08:48:42.493Z,20.30
2023-05-25T08:51:14.687Z,20.33
2023-05-25T08:53:43.572Z,20.27
2023-05-25T08:56:10.208Z,21.49
2023-05-25T08:58:42.266Z,21.43
2023-05-25T09:01:14.390Z,20.39
2023-05-25T09:03:41.417Z,20.01
2023-05-25T09:06:17.462Z,20.33
2023-05-25T09:08:45.127Z,19.88
2023-05-25T09:11:16.951Z,19.40
2023-05-25T09:13:46.338Z,19.82
2023-05-25T09:16:16.499Z,20.95
2023-05-25T09:18:43.280Z,20.29
2023-05-25T09:21:09.857Z,19.57
2023-05-25T09:23:37.674Z,19.64
2023-05-25T09:26:05.039Z,20.20
2023-05-25T09:28:31.679Z,19.19
2023-05-25T09:30:58.390Z,20.19
2023-05-25T09:33:25.023Z,20.54
2023-05-25T09:35:51.804Z,20.99
2023-05-25T09:38:19.078Z,21.10
2023-05-25T09:40:46.348Z,20.57
2023-05-25T09:43:21.953Z,21.17
2023-05-25T09:45:55.814Z,21.85
2023-05-25T09:48:23.174Z,20.93
2023-05-25T09:50:51.781Z,20.83
2023-05-25T09:53:18.758Z,22.03
2023-05-25T09:55:53.655Z,20.08
2023-05-25T09:58:25.089Z,21.10
2023-05-25T10:00:55.417Z,21.01
2023-05-25T10:03:22.516Z,20.21
2023-05-25T10:05:50.113Z,21.26
2023-05-25T10:08:18.249Z,21.95
2023-05-25T10:10:45.662Z,20.95
2023-05-25T10:13:13.434Z,23.01
2023-05-25T10:15:45.218Z,22.21
2023-05-25T10:18:13.412Z,22.49
2023-05-25T10:20:40.342Z,22.28
2023-05-25T10:23:12.068Z,21.60
2023-05-25T10:25:42.090Z,20.81
2023-05-25T10:28:15.299Z,21.69
2023-05-25T10:30:43.274Z,21.65
2023-05-25T10:33:10.715Z,22.05
2023-05-25T10:35:56.253Z,20.14
2023-05-25T10:38:29.081Z,20.41
2023-05-25T10:40:56.298Z,20.45
2023-05-25T10:43:23.602Z,20.57
2023-05-25T10:45:50.453Z,20.71
2023-05-25T10:48:17.168Z,21.60
2023-05-25T10:50:50.378Z,22.32
2023-05-25T10:53:17.142Z,21.76
2023-05-25T10:56:02.641Z,25.13
2023-05-25T10:58:30.495Z,26.97
2023-05-25T11:01:09.356Z,27.66
2023-05-25T11:03:48.223Z,28.58
2023-05-25T11:06:15.982Z,27.35
2023-05-25T11:08:55.954Z,27.44
2023-05-25T11:11:44.364Z,26.92
2023-05-25T11:14:31.710Z,26.34
2023-05-25T11:17:12.901Z,24.98
2023-05-25T11:19:41.427Z,23.42
2023-05-25T11:22:35.007Z,22.04
2023-05-25T11:25:03.540Z,21.66
2023-05-25T11:27:31.629Z,22.70
2023-05-25T11:29:59.635Z,22.57
2023-05-25T11:32:27.230Z,22.45
2023-05-25T11:34:54.409Z,23.21
2023-05-25T11:37:24.687Z,23.80
2023-05-25T11:39:53.388Z,24.37
2023-05-25T11:42:27.212Z,21.39
2023-05-25T11:44:57.441Z,23.44
2023-05-25T11:47:25.734Z,23.08
2023-05-25T11:49:55.663Z,23.55
2023-05-25T11:52:23.214Z,23.23
2023-05-25T11:54:49.896Z,23.88
2023-05-25T11:57:27.500Z,24.82
2023-05-25T11:59:57.258Z,25.21
2023-05-25T12:02:24.433Z,24.13
2023-05-25T12:05:04.250Z,22.38
2023-05-25T12:07:37.326Z,22.87
2023-05-25T12:10:07.965Z,22.34
2023-05-25T12:12:43.209Z,21.44
2023-05-25T12:15:12.268Z,22.20
2023-05-25T12:17:41.974Z,22.07
2023-05-25T12:20:13.261Z,22.68
2023-05-25T12:22:40.595Z,22.45
2023-05-25T12:25:11.836Z,22.38
2023-05-25T12:27:40.285Z,21.39
2023-05-25T12:30:09.327Z,22.07
2023-05-25T12:32:53.747Z,22.78
2023-05-25T12:35:20.744Z,21.97
2023-05-25T12:37:48.016Z,22.83
2023-05-25T12:40:21.429Z,22.78
2023-05-25T12:42:56.755Z,23.11
2023-05-25T12:45:24.292Z,22.81
2023-05-25T12:48:00.138Z,21.80
2023-05-25T12:50:29.525Z,22.75
2023-05-25T12:53:01.996Z,23.28
2023-05-25T12:55:30.295Z,23.52
2023-05-25T12:58:05.698Z,24.84
2023-05-25T13:00:34.801Z,24.42
2023-05-25T13:03:01.876Z,25.22
2023-05-25T13:05:30.416Z,25.30
2023-05-25T13:07:58.196Z,24.54
2023-05-25T13:10:27.826Z,23.73
2023-05-25T13:12:56.134Z,23.59
2023-05-25T13:15:23.144Z,24.65
2023-05-25T13:17:58.478Z,23.95
2023-05-25T13:20:27.087Z,24.12
2023-05-25T13:22:56.610Z,24.64
2023-05-25T13:25:23.398Z,24.24
2023-05-25T13:27:51.812Z,23.32
2023-05-25T13:30:18.839Z,23.11
2023-05-25T13:32:46.174Z,22.82
2023-05-25T13:35:34.253Z,24.33
2023-05-25T13:38:00.924Z,24.24
2023-05-25T13:40:28.482Z,24.37
2023-05-25T13:42:55.387Z,22.14
2023-05-25T13:45:21.980Z,21.42
2023-05-25T13:47:48.683Z,20.94
2023-05-25T13:50:15.720Z,22.21
2023-05-25T13:52:42.412Z,22.50
2023-05-25T13:55:09.150Z,20.77
2023-05-25T13:57:35.845Z,22.67
2023-05-25T14:00:02.454Z,23.81
2023-05-25T14:02:32.110Z,23.57
2023-05-25T14:05:01.687Z,23.91
2023-05-25T14:07:28.356Z,23.34
2023-05-25T14:09:55.075Z,24.47
2023-05-25T14:12:22.035Z,24.39
2023-05-25T14:14:48.651Z,23.90
2023-05-25T14:17:15.340Z,24.25
2023-05-25T14:19:42.230Z,23.04
2023-05-25T14:22:14.076Z,23.57
2023-05-25T14:24:44.392Z,23.08
2023-05-25T14:27:11.104Z,24.05
2023-05-25T14:29:37.888Z,22.45
2023-05-25T14:32:04.895Z,22.57
2023-05-25T14:34:33.588Z,23.17
2023-05-25T14:37:00.307Z,23.28
2023-05-25T14:39:27.004Z,22.32
2023-05-25T14:41:53.738Z,24.05
2023-05-25T14:44:20.454Z,24.98
2023-05-25T14:46:47.790Z,23.66
2023-05-25T14:49:14.394Z,24.00
2023-05-25T14:51:41.126Z,24.24
2023-05-25T14:54:08.007Z,23.59
2023-05-25T14:56:35.044Z,23.30
2023-05-25T14:59:01.954Z,22.30
2023-05-25T15:01:31.351Z,23.11
2023-05-25T15:03:58.268Z,23.22
2023-05-25T15:06:25.032Z,23.85
2023-05-25T15:08:54.661Z,22.88
2023-05-25T15:11:21.413Z,21.68
2023-05-25T15:13:48.074Z,22.86
2023-05-25T15:16:14.989Z,21.65
2023-05-25T15:18:41.752Z,21.89
2023-05-25T15:21:08.497Z,21.52
2023-05-25T15:23:35.760Z,22.37
2023-05-25T15:26:04.394Z,22.01
2023-05-25T15:28:31.733Z,19.87
2023-05-25T15:31:00.754Z,19.13
2023-05-25T15:33:40.018Z,20.09
2023-05-25T15:36:14.952Z,21.63
2023-05-25T15:38:43.443Z,22.28
2023-05-25T15:41:11.372Z,22.88
2023-05-25T15:43:38.008Z,22.92
2023-05-25T15:46:04.816Z,23.13
2023-05-25T15:48:31.642Z,23.23
2023-05-25T15:50:58.347Z,22.71
2023-05-25T15:53:24.978Z,24.29
2023-05-25T15:55:51.902Z,24.45
2023-05-25T15:58:18.621Z,22.49
2023-05-25T16:00:45.389Z,23.35
2023-05-25T16:03:12.600Z,22.03
2023-05-25T16:05:39.214Z,22.29
2023-05-25T16:08:05.843Z,21.02
2023-05-25T16:10:32.462Z,21.69
2023-05-25T16:12:59.043Z,21.22
2023-05-25T16:15:25.877Z,20.48
2023-05-25T16:17:52.399Z,19.45
2023-05-25T16:20:19.180Z,20.69
2023-05-25T16:22:47.555Z,21.84
2023-05-25T16:25:14.181Z,22.36
2023-05-25T16:27:41.042Z,20.99
2023-05-25T16:30:08.595Z,21.28
2023-05-25T16:32:36.571Z,21.73
2023-05-25T16:35:09.385Z,20.86
2023-05-25T16:37:44.740Z,22.35
2023-05-25T16:40:11.788Z,21.83
2023-05-25T16:42:41.031Z,21.53
2023-05-25T16:45:08.161Z,21.38
2023-05-25T16:47:34.919Z,21.50
2023-05-25T16:50:01.562Z,21.83
2023-05-25T16:52:28.829Z,21.07
2023-05-25T16:54:56.314Z,20.29
2023-05-25T16:57:22.978Z,19.99
2023-05-25T16:59:50.710Z,20.49
2023-05-25T17:02:18.397Z,20.49
2023-05-25T17:04:45.057Z,20.40
2023-05-25T17:07:11.763Z,20.51
2023-05-25T17:09:38.459Z,20.64
2023-05-25T17:12:06.450Z,20.45
2023-05-25T17:14:33.067Z,19.53
2023-05-25T17:17:00.074Z,18.23
2023-05-25T17:19:26.892Z,20.33
2023-05-25T17:21:53.658Z,19.30
2023-05-25T17:24:20.443Z,19.83
2023-05-25T17:26:49.969Z,19.58
2023-05-25T17:29:16.813Z,20.13
2023-05-25T17:31:43.571Z,19.70
2023-05-25T17:34:13.607Z,20.18
2023-05-25T17:36:43.313Z,20.56
2023-05-25T17:39:09.952Z,19.78
2023-05-25T17:41:39.370Z,20.12
2023-05-25T17:44:06.160Z,20.02
2023-05-25T17:46:32.868Z,19.97
2023-05-25T17:48:59.877Z,19.96
2023-05-25T17:51:26.529Z,20.18
2023-05-25T17:53:53.246Z,19.55
2023-05-25T17:56:19.853Z,19.88
2023-05-25T17:58:47.658Z,18.47
2023-05-25T18:01:22.895Z,19.74
2023-05-25T18:03:53.843Z,19.24
2023-05-25T18:06:20.863Z,19.11
2023-05-25T18:08:49.500Z,19.87
2023-05-25T18:11:16.149Z,19.69
2023-05-25T18:13:42.830Z,19.41
2023-05-25T18:16:09.438Z,17.90
2023-05-25T18:18:36.128Z,19.87
2023-05-25T18:21:02.778Z,19.73
2023-05-25T18:23:30.777Z,19.96
2023-05-25T18:26:00.152Z,19.62
2023-05-25T18:28:27.796Z,20.13
2023-05-25T18:30:55.420Z,19.53
2023-05-25T18:33:22.101Z,19.75
2023-05-25T18:35:51.653Z,19.02
2023-05-25T18:38:18.428Z,19.31
2023-05-25T18:40:45.115Z,18.03
2023-05-25T18:43:14.595Z,19.44
2023-05-25T18:45:41.212Z,19.43
2023-05-25T18:48:07.836Z,19.81
2023-05-25T18:50:35.535Z,19.37
2023-05-25T18:53:02.559Z,19.35
2023-05-25T18:55:31.924Z,19.06
2023-05-25T18:57:58.864Z,18.87
2023-05-25T19:00:25.681Z,18.92
2023-05-25T19:02:52.435Z,18.58
2023-05-25T19:05:20.047Z,18.49
2023-05-25T19:07:57.729Z,18.20
2023-05-25T19:10:29.239Z,17.81
2023-05-25T19:12:55.930Z,19.18
2023-05-25T19:15:22.749Z,18.60
2023-05-25T19:17:52.391Z,18.77
2023-05-25T19:20:22.166Z,18.86
2023-05-25T19:22:51.436Z,18.47
2023-05-25T19:25:18.224Z,18.44
2023-05-25T19:27:44.865Z,18.58
2023-05-25T19:30:11.763Z,18.49
2023-05-25T19:32:38.356Z,18.58
2023-05-25T19:35:05.565Z,18.66
2023-05-25T19:37:32.265Z,17.99
2023-05-25T19:39:59.200Z,18.29
2023-05-25T19:42:25.858Z,17.31
2023-05-25T19:44:52.595Z,18.12
2023-05-25T19:47:19.471Z,18.38
2023-05-25T19:49:47.920Z,18.21
2023-05-25T19:52:16.648Z,17.68
2023-05-25T19:54:46.429Z,18.18
2023-05-25T19:57:13.253Z,17.92
2023-05-25T19:59:42.064Z,17.76
2023-05-25T20:02:08.933Z,17.26
2023-05-25T20:04:35.622Z,17.61
2023-05-25T20:07:02.228Z,18.13
2023-05-25T20:09:31.777Z,18.34
2023-05-25T20:11:58.985Z,18.26
2023-05-25T20:14:26.085Z,17.58
2023-05-25T20:16:55.138Z,18.00
2023-05-25T20:19:22.372Z,18.48
2023-05-25T20:21:49.117Z,18.30
2023-05-25T20:24:15.767Z,17.96
2023-05-25T20:26:42.438Z,18.05
2023-05-25T20:29:09.485Z,18.05
2023-05-25T20:31:36.149Z,18.18
2023-05-25T20:34:02.751Z,18.18
2023-05-25T20:36:29.408Z,17.50
2023-05-25T20:38:56.046Z,16.96
2023-05-25T20:41:23.978Z,18.27
2023-05-25T20:43:50.709Z,17.97
2023-05-25T20:46:17.402Z,18.02
2023-05-25T20:48:44.321Z,18.04
2023-05-25T20:51:11.619Z,17.21
2023-05-25T20:53:38.298Z,17.69
2023-05-25T20:56:04.986Z,17.27
2023-05-25T20:58:31.588Z,17.33
2023-05-25T21:00:58.294Z,17.78
2023-05-25T21:03:25.038Z,17.55
2023-05-25T21:05:51.693Z,17.57
2023-05-25T21:08:18.297Z,17.11
2023-05-25T21:10:44.973Z,17.30
2023-05-25T21:13:12.357Z,16.47
2023-05-25T21:15:39.025Z,16.87
2023-05-25T21:18:07.020Z,15.65
2023-05-25T21:20:33.925Z,16.68
2023-05-25T21:23:02.502Z,16.91
2023-05-25T21:25:32.142Z,15.98
2023-05-25T21:27:58.890Z,16.42
2023-05-25T21:30:25.703Z,14.05
2023-05-25T21:32:52.406Z,15.13
2023-05-25T21:35:19.092Z,16.27
2023-05-25T21:37:49.012Z,15.86
2023-05-25T21:40:15.745Z,16.02
2023-05-25T21:42:42.263Z,16.53
2023-05-25T21:45:13.102Z,16.50
2023-05-25T21:47:39.755Z,15.36
2023-05-25T21:50:06.827Z,15.01
2023-05-25T21:52:33.501Z,14.85
2023-05-25T21:55:00.163Z,13.57
2023-05-25T21:57:26.796Z,15.64
2023-05-25T21:59:53.824Z,15.11
2023-05-25T22:02:20.557Z,14.97
2023-05-25T22:04:47.403Z,15.45
2023-05-25T22:07:14.579Z,14.96
2023-05-25T22:09:41.150Z,14.96
2023-05-25T22:12:11.131Z,15.88
2023-05-25T22:14:37.880Z,15.42
2023-05-25T22:17:04.745Z,15.56
2023-05-25T22:19:31.624Z,14.67
2023-05-25T22:21:58.254Z,15.57
2023-05-25T22:24:24.895Z,15.50
2023-05-25T22:26:52.166Z,14.92
2023-05-25T22:29:18.845Z,15.36
2023-05-25T22:31:45.839Z,15.58
2023-05-25T22:34:12.438Z,15.77
2023-05-25T22:36:39.213Z,15.47
2023-05-25T22:39:05.796Z,15.60
2023-05-25T22:41:32.373Z,15.54
2023-05-25T22:43:59.030Z,15.72
2023-05-25T22:46:28.756Z,14.81
2023-05-25T22:49:01.103Z,15.06
2023-05-25T22:51:27.690Z,15.04
2023-05-25T22:53:54.260Z,14.20
2023-05-25T22:56:22.858Z,14.39
2023-05-25T22:58:52.343Z,14.62
2023-05-25T23:01:19.112Z,13.82
2023-05-25T23:03:46.021Z,13.70
2023-05-25T23:06:12.772Z,13.67
2023-05-25T23:08:39.693Z,15.27
2023-05-25T23:11:06.396Z,15.39
2023-05-25T23:13:33.559Z,14.76
2023-05-25T23:16:00.291Z,15.25
2023-05-25T23:18:26.907Z,14.73
2023-05-25T23:20:53.666Z,15.84
2023-05-25T23:23:26.434Z,15.06
2023-05-25T23:25:53.894Z,15.50
2023-05-25T23:28:20.704Z,15.58
2023-05-25T23:30:47.342Z,15.46
2023-05-25T23:33:14.133Z,15.10
2023-05-25T23:35:40.856Z,15.44
2023-05-25T23:38:07.538Z,14.97
2023-05-25T23:40:36.941Z,15.51
2023-05-25T23:43:06.353Z,15.73
2023-05-25T23:45:33.060Z,15.61
2023-05-25T23:47:59.609Z,15.71
2023-05-25T23:50:26.473Z,15.53
2023-05-25T23:52:53.068Z,15.27
2023-05-25T23:55:19.917Z,14.98
2023-05-25T23:57:47.108Z,14.54
